sensor_id;sensor_type;location;lat;lon;timestamp;P1;durP1;ratioP1;P2;durP2;ratioP2
11037;SDS011;5572;49.540;11.932;2023-09-19T00:01:42;19.37;;;17.90;;
11037;SDS011;5572;49.540;11.932;2023-09-19T00:04:12;21.83;;;20.10;;
11037;SDS011;5572;49.540;11.932;2023-09-19T00:06:39;18.47;;;16.93;;
11037;SDS011;5572;49.540;11.932;2023-09-19T00:09:06;17.37;;;16.03;;
11037;SDS011;5572;49.540;11.932;2023-09-19T00:11:35;19.43;;;17.83;;
11037;SDS011;5572;49.540;11.932;2023-09-19T00:14:02;20.97;;;19.20;;
11037;SDS011;5572;49.540;11.932;2023-09-19T00:16:29;18.37;;;16.83;;
11037;SDS011;5572;49.540;11.932;2023-09-19T00:18:58;18.33;;;16.83;;
11037;SDS011;5572;49.540;11.932;2023-09-19T00:21:26;18.23;;;16.73;;
11037;SDS011;5572;49.540;11.932;2023-09-19T00:23:53;18.83;;;17.43;;
11037;SDS011;5572;49.540;11.932;2023-09-19T00:26:20;17.97;;;16.57;;
11037;SDS011;5572;49.540;11.932;2023-09-19T00:28:47;18.83;;;17.37;;
11037;SDS011;5572;49.540;11.932;2023-09-19T00:31:13;16.63;;;15.37;;
11037;SDS011;5572;49.540;11.932;2023-09-19T00:33:40;18.27;;;16.87;;
11037;SDS011;5572;49.540;11.932;2023-09-19T00:36:07;18.30;;;16.70;;
11037;SDS011;5572;49.540;11.932;2023-09-19T00:38:35;16.47;;;15.33;;
11037;SDS011;5572;49.540;11.932;2023-09-19T00:41:02;17.47;;;16.13;;
11037;SDS011;5572;49.540;11.932;2023-09-19T00:43:29;18.70;;;17.17;;
11037;SDS011;5572;49.540;11.932;2023-09-19T00:45:59;18.33;;;16.90;;
11037;SDS011;5572;49.540;11.932;2023-09-19T00:48:28;17.47;;;16.13;;
11037;SDS011;5572;49.540;11.932;2023-09-19T00:50:56;17.53;;;16.17;;
11037;SDS011;5572;49.540;11.932;2023-09-19T00:53:25;18.20;;;16.80;;
11037;SDS011;5572;49.540;11.932;2023-09-19T00:55:53;16.67;;;15.40;;
11037;SDS011;5572;49.540;11.932;2023-09-19T00:58:21;19.60;;;18.10;;
11037;SDS011;5572;49.540;11.932;2023-09-19T01:00:48;17.53;;;16.23;;
11037;SDS011;5572;49.540;11.932;2023-09-19T01:03:15;19.67;;;18.13;;
11037;SDS011;5572;49.540;11.932;2023-09-19T01:05:43;18.20;;;16.70;;
11037;SDS011;5572;49.540;11.932;2023-09-19T01:08:10;19.07;;;17.57;;
11037;SDS011;5572;49.540;11.932;2023-09-19T01:10:37;17.77;;;16.40;;
11037;SDS011;5572;49.540;11.932;2023-09-19T01:13:16;19.97;;;18.40;;
11037;SDS011;5572;49.540;11.932;2023-09-19T01:15:51;17.70;;;16.37;;
11037;SDS011;5572;49.540;11.932;2023-09-19T01:18:27;18.97;;;17.57;;
11037;SDS011;5572;49.540;11.932;2023-09-19T01:21:03;18.53;;;17.13;;
11037;SDS011;5572;49.540;11.932;2023-09-19T01:23:39;18.63;;;17.23;;
11037;SDS011;5572;49.540;11.932;2023-09-19T01:26:30;16.67;;;15.53;;
11037;SDS011;5572;49.540;11.932;2023-09-19T01:29:26;17.30;;;16.10;;
11037;SDS011;5572;49.540;11.932;2023-09-19T01:32:05;17.73;;;16.50;;
11037;SDS011;5572;49.540;11.932;2023-09-19T01:34:44;15.93;;;14.63;;
11037;SDS011;5572;49.540;11.932;2023-09-19T01:37:14;16.73;;;15.33;;
11037;SDS011;5572;49.540;11.932;2023-09-19T01:39:44;16.67;;;15.53;;
11037;SDS011;5572;49.540;11.932;2023-09-19T01:42:15;18.43;;;16.60;;
11037;SDS011;5572;49.540;11.932;2023-09-19T01:44:51;15.37;;;14.20;;
11037;SDS011;5572;49.540;11.932;2023-09-19T01:47:26;15.67;;;14.37;;
11037;SDS011;5572;49.540;11.932;2023-09-19T01:49:59;15.30;;;14.17;;
11037;SDS011;5572;49.540;11.932;2023-09-19T01:52:35;18.67;;;17.33;;
11037;SDS011;5572;49.540;11.932;2023-09-19T01:55:08;15.73;;;14.60;;
11037;SDS011;5572;49.540;11.932;2023-09-19T01:57:38;16.47;;;15.20;;
11037;SDS011;5572;49.540;11.932;2023-09-19T02:00:11;18.27;;;16.87;;
11037;SDS011;5572;49.540;11.932;2023-09-19T02:02:42;15.83;;;14.73;;
11037;SDS011;5572;49.540;11.932;2023-09-19T02:05:10;17.40;;;15.93;;
11037;SDS011;5572;49.540;11.932;2023-09-19T02:07:37;15.47;;;14.37;;
11037;SDS011;5572;49.540;11.932;2023-09-19T02:10:05;16.13;;;14.97;;
11037;SDS011;5572;49.540;11.932;2023-09-19T02:12:35;16.00;;;14.70;;
11037;SDS011;5572;49.540;11.932;2023-09-19T02:15:01;16.10;;;15.00;;
11037;SDS011;5572;49.540;11.932;2023-09-19T02:17:28;14.23;;;13.30;;
11037;SDS011;5572;49.540;11.932;2023-09-19T02:19:57;16.07;;;14.90;;
11037;SDS011;5572;49.540;11.932;2023-09-19T02:22:26;15.57;;;14.43;;
11037;SDS011;5572;49.540;11.932;2023-09-19T02:24:53;16.87;;;15.70;;
11037;SDS011;5572;49.540;11.932;2023-09-19T02:27:19;15.97;;;14.87;;
11037;SDS011;5572;49.540;11.932;2023-09-19T02:29:46;15.50;;;14.30;;
11037;SDS011;5572;49.540;11.932;2023-09-19T02:32:14;17.60;;;16.37;;
11037;SDS011;5572;49.540;11.932;2023-09-19T02:34:43;16.07;;;14.93;;
11037;SDS011;5572;49.540;11.932;2023-09-19T02:37:11;16.43;;;15.23;;
11037;SDS011;5572;49.540;11.932;2023-09-19T02:39:38;21.60;;;18.00;;
11037;SDS011;5572;49.540;11.932;2023-09-19T02:42:05;18.03;;;16.67;;
11037;SDS011;5572;49.540;11.932;2023-09-19T02:44:31;15.50;;;14.37;;
11037;SDS011;5572;49.540;11.932;2023-09-19T02:46:59;15.73;;;14.57;;
11037;SDS011;5572;49.540;11.932;2023-09-19T02:49:25;17.57;;;16.33;;
11037;SDS011;5572;49.540;11.932;2023-09-19T02:51:52;15.20;;;14.07;;
11037;SDS011;5572;49.540;11.932;2023-09-19T02:54:20;18.47;;;17.00;;
11037;SDS011;5572;49.540;11.932;2023-09-19T02:56:47;15.73;;;14.60;;
11037;SDS011;5572;49.540;11.932;2023-09-19T02:59:13;16.53;;;15.27;;
11037;SDS011;5572;49.540;11.932;2023-09-19T03:01:42;15.97;;;14.80;;
11037;SDS011;5572;49.540;11.932;2023-09-19T03:04:09;19.63;;;18.00;;
11037;SDS011;5572;49.540;11.932;2023-09-19T03:06:36;16.17;;;14.97;;
11037;SDS011;5572;49.540;11.932;2023-09-19T03:09:03;16.10;;;14.93;;
11037;SDS011;5572;49.540;11.932;2023-09-19T03:11:37;15.17;;;14.03;;
11037;SDS011;5572;49.540;11.932;2023-09-19T03:14:05;19.73;;;18.23;;
11037;SDS011;5572;49.540;11.932;2023-09-19T03:16:31;15.23;;;14.17;;
11037;SDS011;5572;49.540;11.932;2023-09-19T03:18:58;16.50;;;15.27;;
11037;SDS011;5572;49.540;11.932;2023-09-19T03:21:25;15.60;;;14.40;;
11037;SDS011;5572;49.540;11.932;2023-09-19T03:23:54;15.83;;;14.73;;
11037;SDS011;5572;49.540;11.932;2023-09-19T03:26:21;16.50;;;15.27;;
11037;SDS011;5572;49.540;11.932;2023-09-19T03:28:49;15.53;;;14.43;;
11037;SDS011;5572;49.540;11.932;2023-09-19T03:31:15;17.33;;;16.10;;
11037;SDS011;5572;49.540;11.932;2023-09-19T03:33:42;15.60;;;14.43;;
11037;SDS011;5572;49.540;11.932;2023-09-19T03:36:08;16.33;;;15.20;;
11037;SDS011;5572;49.540;11.932;2023-09-19T03:38:35;15.97;;;14.87;;
11037;SDS011;5572;49.540;11.932;2023-09-19T03:41:02;17.23;;;16.07;;
11037;SDS011;5572;49.540;11.932;2023-09-19T03:43:29;20.83;;;19.30;;
11037;SDS011;5572;49.540;11.932;2023-09-19T03:46:00;16.93;;;15.70;;
11037;SDS011;5572;49.540;11.932;2023-09-19T03:48:28;16.20;;;15.10;;
11037;SDS011;5572;49.540;11.932;2023-09-19T03:50:55;16.30;;;15.17;;
11037;SDS011;5572;49.540;11.932;2023-09-19T03:53:22;17.73;;;16.47;;
11037;SDS011;5572;49.540;11.932;2023-09-19T03:55:49;15.27;;;14.20;;
11037;SDS011;5572;49.540;11.932;2023-09-19T03:58:15;16.43;;;15.17;;
11037;SDS011;5572;49.540;11.932;2023-09-19T04:00:42;17.07;;;15.87;;
11037;SDS011;5572;49.540;11.932;2023-09-19T04:03:09;16.47;;;15.37;;
11037;SDS011;5572;49.540;11.932;2023-09-19T04:05:44;19.97;;;18.53;;
11037;SDS011;5572;49.540;11.932;2023-09-19T04:08:11;17.20;;;16.00;;
11037;SDS011;5572;49.540;11.932;2023-09-19T04:10:38;17.83;;;16.53;;
11037;SDS011;5572;49.540;11.932;2023-09-19T04:13:04;16.80;;;15.60;;
11037;SDS011;5572;49.540;11.932;2023-09-19T04:15:32;16.27;;;15.00;;
11037;SDS011;5572;49.540;11.932;2023-09-19T04:17:59;16.70;;;15.53;;
11037;SDS011;5572;49.540;11.932;2023-09-19T04:20:27;15.97;;;14.87;;
11037;SDS011;5572;49.540;11.932;2023-09-19T04:22:53;17.10;;;15.87;;
11037;SDS011;5572;49.540;11.932;2023-09-19T04:25:20;16.67;;;15.50;;
11037;SDS011;5572;49.540;11.932;2023-09-19T04:27:47;16.87;;;15.57;;
11037;SDS011;5572;49.540;11.932;2023-09-19T04:30:13;18.97;;;17.67;;
11037;SDS011;5572;49.540;11.932;2023-09-19T04:32:41;16.90;;;15.77;;
11037;SDS011;5572;49.540;11.932;2023-09-19T04:35:08;15.97;;;14.87;;
11037;SDS011;5572;49.540;11.932;2023-09-19T04:37:38;16.23;;;15.07;;
11037;SDS011;5572;49.540;11.932;2023-09-19T04:40:06;17.40;;;16.20;;
11037;SDS011;5572;49.540;11.932;2023-09-19T04:42:37;16.77;;;15.60;;
11037;SDS011;5572;49.540;11.932;2023-09-19T04:45:05;16.23;;;15.10;;
11037;SDS011;5572;49.540;11.932;2023-09-19T04:47:32;15.80;;;14.70;;
11037;SDS011;5572;49.540;11.932;2023-09-19T04:49:58;16.17;;;14.90;;
11037;SDS011;5572;49.540;11.932;2023-09-19T04:52:25;17.53;;;16.33;;
11037;SDS011;5572;49.540;11.932;2023-09-19T04:54:53;16.03;;;14.93;;
11037;SDS011;5572;49.540;11.932;2023-09-19T04:57:19;17.40;;;16.27;;
11037;SDS011;5572;49.540;11.932;2023-09-19T04:59:46;17.50;;;16.37;;
11037;SDS011;5572;49.540;11.932;2023-09-19T05:02:13;17.43;;;16.03;;
11037;SDS011;5572;49.540;11.932;2023-09-19T05:04:39;17.07;;;15.87;;
11037;SDS011;5572;49.540;11.932;2023-09-19T05:07:06;17.07;;;15.93;;
11037;SDS011;5572;49.540;11.932;2023-09-19T05:09:32;17.67;;;16.43;;
11037;SDS011;5572;49.540;11.932;2023-09-19T05:12:01;18.70;;;17.43;;
11037;SDS011;5572;49.540;11.932;2023-09-19T05:14:27;19.20;;;17.83;;
11037;SDS011;5572;49.540;11.932;2023-09-19T05:16:54;16.67;;;15.57;;
11037;SDS011;5572;49.540;11.932;2023-09-19T05:19:20;17.63;;;16.33;;
11037;SDS011;5572;49.540;11.932;2023-09-19T05:21:47;16.00;;;14.93;;
11037;SDS011;5572;49.540;11.932;2023-09-19T05:24:14;19.00;;;17.60;;
11037;SDS011;5572;49.540;11.932;2023-09-19T05:26:42;15.83;;;14.73;;
11037;SDS011;5572;49.540;11.932;2023-09-19T05:29:10;17.23;;;16.00;;
11037;SDS011;5572;49.540;11.932;2023-09-19T05:31:37;17.43;;;16.30;;
11037;SDS011;5572;49.540;11.932;2023-09-19T05:34:06;20.60;;;18.93;;
11037;SDS011;5572;49.540;11.932;2023-09-19T05:36:32;17.37;;;16.17;;
11037;SDS011;5572;49.540;11.932;2023-09-19T05:38:59;16.53;;;15.43;;
11037;SDS011;5572;49.540;11.932;2023-09-19T05:41:25;18.63;;;17.30;;
11037;SDS011;5572;49.540;11.932;2023-09-19T05:43:52;17.83;;;16.47;;
11037;SDS011;5572;49.540;11.932;2023-09-19T05:46:20;16.67;;;15.50;;
11037;SDS011;5572;49.540;11.932;2023-09-19T05:48:47;16.37;;;15.27;;
11037;SDS011;5572;49.540;11.932;2023-09-19T05:51:14;16.87;;;15.70;;
11037;SDS011;5572;49.540;11.932;2023-09-19T05:53:42;18.33;;;17.10;;
11037;SDS011;5572;49.540;11.932;2023-09-19T05:56:09;16.40;;;15.30;;
11037;SDS011;5572;49.540;11.932;2023-09-19T05:58:36;22.57;;;20.27;;
11037;SDS011;5572;49.540;11.932;2023-09-19T06:01:03;17.17;;;15.97;;
11037;SDS011;5572;49.540;11.932;2023-09-19T06:03:33;18.30;;;16.97;;
11037;SDS011;5572;49.540;11.932;2023-09-19T06:06:00;17.87;;;16.53;;
11037;SDS011;5572;49.540;11.932;2023-09-19T06:08:27;20.47;;;18.87;;
11037;SDS011;5572;49.540;11.932;2023-09-19T06:10:54;18.70;;;17.30;;
11037;SDS011;5572;49.540;11.932;2023-09-19T06:13:20;19.63;;;18.07;;
11037;SDS011;5572;49.540;11.932;2023-09-19T06:15:48;18.63;;;17.23;;
11037;SDS011;5572;49.540;11.932;2023-09-19T06:18:15;20.87;;;19.37;;
11037;SDS011;5572;49.540;11.932;2023-09-19T06:20:46;21.33;;;19.27;;
11037;SDS011;5572;49.540;11.932;2023-09-19T06:23:12;19.37;;;17.83;;
11037;SDS011;5572;49.540;11.932;2023-09-19T06:25:39;20.97;;;19.27;;
11037;SDS011;5572;49.540;11.932;2023-09-19T06:28:06;19.10;;;17.53;;
11037;SDS011;5572;49.540;11.932;2023-09-19T06:30:33;20.03;;;18.53;;
11037;SDS011;5572;49.540;11.932;2023-09-19T06:33:00;19.20;;;17.70;;
11037;SDS011;5572;49.540;11.932;2023-09-19T06:35:28;20.33;;;18.70;;
11037;SDS011;5572;49.540;11.932;2023-09-19T06:38:01;20.90;;;19.10;;
11037;SDS011;5572;49.540;11.932;2023-09-19T06:40:29;21.37;;;19.47;;
11037;SDS011;5572;49.540;11.932;2023-09-19T06:42:57;18.43;;;16.93;;
11037;SDS011;5572;49.540;11.932;2023-09-19T06:45:23;18.43;;;16.90;;
11037;SDS011;5572;49.540;11.932;2023-09-19T06:47:52;18.80;;;17.20;;
11037;SDS011;5572;49.540;11.932;2023-09-19T06:50:23;18.03;;;16.70;;
11037;SDS011;5572;49.540;11.932;2023-09-19T06:52:50;17.07;;;15.73;;
11037;SDS011;5572;49.540;11.932;2023-09-19T06:55:21;18.70;;;17.30;;
11037;SDS011;5572;49.540;11.932;2023-09-19T06:57:50;16.90;;;15.60;;
11037;SDS011;5572;49.540;11.932;2023-09-19T07:00:19;17.00;;;15.80;;
11037;SDS011;5572;49.540;11.932;2023-09-19T07:02:54;17.73;;;16.43;;
11037;SDS011;5572;49.540;11.932;2023-09-19T07:05:21;17.00;;;15.70;;
11037;SDS011;5572;49.540;11.932;2023-09-19T07:07:48;17.77;;;16.37;;
11037;SDS011;5572;49.540;11.932;2023-09-19T07:10:15;17.80;;;16.40;;
11037;SDS011;5572;49.540;11.932;2023-09-19T07:12:44;18.57;;;17.17;;
11037;SDS011;5572;49.540;11.932;2023-09-19T07:15:11;18.47;;;17.07;;
11037;SDS011;5572;49.540;11.932;2023-09-19T07:17:37;20.43;;;18.63;;
11037;SDS011;5572;49.540;11.932;2023-09-19T07:20:04;18.87;;;17.47;;
11037;SDS011;5572;49.540;11.932;2023-09-19T07:22:32;19.50;;;17.90;;
11037;SDS011;5572;49.540;11.932;2023-09-19T07:24:59;45.87;;;40.87;;
11037;SDS011;5572;49.540;11.932;2023-09-19T07:27:25;20.10;;;18.43;;
11037;SDS011;5572;49.540;11.932;2023-09-19T07:29:53;19.33;;;17.73;;
11037;SDS011;5572;49.540;11.932;2023-09-19T07:32:20;21.97;;;20.20;;
11037;SDS011;5572;49.540;11.932;2023-09-19T07:34:46;21.40;;;19.63;;
11037;SDS011;5572;49.540;11.932;2023-09-19T07:37:13;20.37;;;18.67;;
11037;SDS011;5572;49.540;11.932;2023-09-19T07:39:40;22.10;;;20.13;;
11037;SDS011;5572;49.540;11.932;2023-09-19T07:42:08;21.87;;;19.97;;
11037;SDS011;5572;49.540;11.932;2023-09-19T07:44:36;21.03;;;19.23;;
11037;SDS011;5572;49.540;11.932;2023-09-19T07:47:04;19.50;;;17.90;;
11037;SDS011;5572;49.540;11.932;2023-09-19T07:49:31;23.13;;;20.80;;
11037;SDS011;5572;49.540;11.932;2023-09-19T07:51:57;21.30;;;19.40;;
11037;SDS011;5572;49.540;11.932;2023-09-19T07:54:24;20.00;;;18.33;;
11037;SDS011;5572;49.540;11.932;2023-09-19T07:56:51;20.60;;;18.80;;
11037;SDS011;5572;49.540;11.932;2023-09-19T07:59:20;20.67;;;18.83;;
11037;SDS011;5572;49.540;11.932;2023-09-19T08:01:47;20.23;;;18.50;;
11037;SDS011;5572;49.540;11.932;2023-09-19T08:04:15;20.17;;;18.47;;
11037;SDS011;5572;49.540;11.932;2023-09-19T08:06:42;19.77;;;18.13;;
11037;SDS011;5572;49.540;11.932;2023-09-19T08:09:09;19.40;;;17.70;;
11037;SDS011;5572;49.540;11.932;2023-09-19T08:11:41;18.83;;;17.23;;
11037;SDS011;5572;49.540;11.932;2023-09-19T08:14:07;23.03;;;21.00;;
11037;SDS011;5572;49.540;11.932;2023-09-19T08:16:34;19.70;;;18.07;;
11037;SDS011;5572;49.540;11.932;2023-09-19T08:19:01;19.73;;;18.00;;
11037;SDS011;5572;49.540;11.932;2023-09-19T08:21:29;19.07;;;17.47;;
11037;SDS011;5572;49.540;11.932;2023-09-19T08:23:57;22.57;;;20.57;;
11037;SDS011;5572;49.540;11.932;2023-09-19T08:26:23;20.77;;;18.93;;
11037;SDS011;5572;49.540;11.932;2023-09-19T08:28:50;22.63;;;20.70;;
11037;SDS011;5572;49.540;11.932;2023-09-19T08:31:18;20.67;;;18.87;;
11037;SDS011;5572;49.540;11.932;2023-09-19T08:33:45;22.03;;;20.10;;
11037;SDS011;5572;49.540;11.932;2023-09-19T08:36:14;21.80;;;19.67;;
11037;SDS011;5572;49.540;11.932;2023-09-19T08:38:42;20.17;;;18.53;;
11037;SDS011;5572;49.540;11.932;2023-09-19T08:41:09;22.77;;;20.50;;
11037;SDS011;5572;49.540;11.932;2023-09-19T08:43:35;22.47;;;20.43;;
11037;SDS011;5572;49.540;11.932;2023-09-19T08:46:03;22.17;;;20.07;;
11037;SDS011;5572;49.540;11.932;2023-09-19T08:48:37;23.50;;;21.20;;
11037;SDS011;5572;49.540;11.932;2023-09-19T08:51:10;21.70;;;19.57;;
11037;SDS011;5572;49.540;11.932;2023-09-19T08:53:47;25.33;;;22.50;;
11037;SDS011;5572;49.540;11.932;2023-09-19T08:56:18;23.67;;;21.13;;
11037;SDS011;5572;49.540;11.932;2023-09-19T08:58:48;25.03;;;22.33;;
11037;SDS011;5572;49.540;11.932;2023-09-19T09:01:18;23.73;;;21.37;;
11037;SDS011;5572;49.540;11.932;2023-09-19T09:03:49;23.10;;;20.53;;
11037;SDS011;5572;49.540;11.932;2023-09-19T09:06:17;22.90;;;20.17;;
11037;SDS011;5572;49.540;11.932;2023-09-19T09:08:46;26.53;;;22.33;;
11037;SDS011;5572;49.540;11.932;2023-09-19T09:11:13;23.50;;;21.00;;
11037;SDS011;5572;49.540;11.932;2023-09-19T09:13:42;22.93;;;20.50;;
11037;SDS011;5572;49.540;11.932;2023-09-19T09:16:09;23.03;;;20.40;;
11037;SDS011;5572;49.540;11.932;2023-09-19T09:18:37;25.30;;;22.23;;
11037;SDS011;5572;49.540;11.932;2023-09-19T09:21:04;24.80;;;22.47;;
11037;SDS011;5572;49.540;11.932;2023-09-19T09:23:31;24.37;;;21.83;;
11037;SDS011;5572;49.540;11.932;2023-09-19T09:25:59;32.80;;;22.97;;
11037;SDS011;5572;49.540;11.932;2023-09-19T09:28:28;23.77;;;21.33;;
11037;SDS011;5572;49.540;11.932;2023-09-19T09:30:58;24.53;;;21.97;;
11037;SDS011;5572;49.540;11.932;2023-09-19T09:33:26;24.60;;;21.13;;
11037;SDS011;5572;49.540;11.932;2023-09-19T09:35:54;24.83;;;22.10;;
11037;SDS011;5572;49.540;11.932;2023-09-19T09:38:23;27.20;;;21.47;;
11037;SDS011;5572;49.540;11.932;2023-09-19T09:40:53;23.53;;;21.03;;
11037;SDS011;5572;49.540;11.932;2023-09-19T09:43:26;25.87;;;21.30;;
11037;SDS011;5572;49.540;11.932;2023-09-19T09:46:07;24.53;;;20.30;;
11037;SDS011;5572;49.540;11.932;2023-09-19T09:48:57;25.23;;;20.33;;
11037;SDS011;5572;49.540;11.932;2023-09-19T09:51:41;27.03;;;21.23;;
11037;SDS011;5572;49.540;11.932;2023-09-19T09:54:11;28.23;;;23.07;;
11037;SDS011;5572;49.540;11.932;2023-09-19T09:59:49;28.73;;;21.60;;
11037;SDS011;5572;49.540;11.932;2023-09-19T10:02:18;24.87;;;20.93;;
11037;SDS011;5572;49.540;11.932;2023-09-19T10:04:50;28.30;;;21.77;;
11037;SDS011;5572;49.540;11.932;2023-09-19T10:07:24;29.30;;;22.13;;
11037;SDS011;5572;49.540;11.932;2023-09-19T10:09:52;25.20;;;21.20;;
11037;SDS011;5572;49.540;11.932;2023-09-19T10:12:24;24.87;;;21.60;;
11037;SDS011;5572;49.540;11.932;2023-09-19T10:14:55;26.10;;;21.77;;
11037;SDS011;5572;49.540;11.932;2023-09-19T10:17:24;25.70;;;21.73;;
11037;SDS011;5572;49.540;11.932;2023-09-19T10:19:53;24.93;;;20.57;;
11037;SDS011;5572;49.540;11.932;2023-09-19T10:22:22;24.53;;;21.03;;
11037;SDS011;5572;49.540;11.932;2023-09-19T10:24:51;24.93;;;21.70;;
11037;SDS011;5572;49.540;11.932;2023-09-19T10:27:20;25.13;;;21.00;;
11037;SDS011;5572;49.540;11.932;2023-09-19T10:29:51;24.20;;;21.07;;
11037;SDS011;5572;49.540;11.932;2023-09-19T10:32:21;25.07;;;21.97;;
11037;SDS011;5572;49.540;11.932;2023-09-19T10:34:49;25.73;;;21.00;;
11037;SDS011;5572;49.540;11.932;2023-09-19T10:37:16;27.40;;;21.97;;
11037;SDS011;5572;49.540;11.932;2023-09-19T10:39:45;23.80;;;20.53;;
11037;SDS011;5572;49.540;11.932;2023-09-19T10:42:14;25.80;;;21.60;;
11037;SDS011;5572;49.540;11.932;2023-09-19T10:44:45;26.23;;;20.80;;
11037;SDS011;5572;49.540;11.932;2023-09-19T10:47:15;25.13;;;21.30;;
11037;SDS011;5572;49.540;11.932;2023-09-19T10:49:45;25.33;;;21.60;;
11037;SDS011;5572;49.540;11.932;2023-09-19T10:52:13;24.50;;;20.93;;
11037;SDS011;5572;49.540;11.932;2023-09-19T10:54:45;25.83;;;21.83;;
11037;SDS011;5572;49.540;11.932;2023-09-19T10:57:19;25.53;;;21.80;;
11037;SDS011;5572;49.540;11.932;2023-09-19T11:00:02;25.90;;;21.40;;
11037;SDS011;5572;49.540;11.932;2023-09-19T11:08:55;29.80;;;24.90;;
11037;SDS011;5572;49.540;11.932;2023-09-19T11:11:45;27.80;;;22.90;;
11037;SDS011;5572;49.540;11.932;2023-09-19T11:14:17;30.87;;;25.43;;
11037;SDS011;5572;49.540;11.932;2023-09-19T11:23:21;31.93;;;24.97;;
11037;SDS011;5572;49.540;11.932;2023-09-19T11:25:52;29.23;;;24.07;;
11037;SDS011;5572;49.540;11.932;2023-09-19T11:28:32;30.13;;;24.33;;
11037;SDS011;5572;49.540;11.932;2023-09-19T11:36:57;30.73;;;25.47;;
11037;SDS011;5572;49.540;11.932;2023-09-19T11:39:25;30.43;;;22.90;;
11037;SDS011;5572;49.540;11.932;2023-09-19T11:41:53;32.20;;;23.70;;
11037;SDS011;5572;49.540;11.932;2023-09-19T11:44:31;34.37;;;26.67;;
11037;SDS011;5572;49.540;11.932;2023-09-19T11:46:59;28.10;;;22.73;;
11037;SDS011;5572;49.540;11.932;2023-09-19T11:49:28;29.10;;;22.83;;
11037;SDS011;5572;49.540;11.932;2023-09-19T11:51:57;32.43;;;25.17;;
11037;SDS011;5572;49.540;11.932;2023-09-19T11:54:26;32.73;;;25.83;;
11037;SDS011;5572;49.540;11.932;2023-09-19T11:56:58;28.67;;;23.97;;
11037;SDS011;5572;49.540;11.932;2023-09-19T11:59:26;29.27;;;23.73;;
11037;SDS011;5572;49.540;11.932;2023-09-19T12:01:55;30.47;;;24.67;;
11037;SDS011;5572;49.540;11.932;2023-09-19T12:04:33;36.50;;;27.73;;
11037;SDS011;5572;49.540;11.932;2023-09-19T12:07:03;32.57;;;25.40;;
11037;SDS011;5572;49.540;11.932;2023-09-19T12:09:31;32.30;;;25.30;;
11037;SDS011;5572;49.540;11.932;2023-09-19T12:11:59;33.53;;;25.77;;
11037;SDS011;5572;49.540;11.932;2023-09-19T12:14:26;30.47;;;23.80;;
11037;SDS011;5572;49.540;11.932;2023-09-19T12:16:53;31.37;;;25.17;;
11037;SDS011;5572;49.540;11.932;2023-09-19T12:19:22;30.80;;;24.27;;
11037;SDS011;5572;49.540;11.932;2023-09-19T12:21:58;32.07;;;24.67;;
11037;SDS011;5572;49.540;11.932;2023-09-19T12:24:29;32.33;;;24.53;;
11037;SDS011;5572;49.540;11.932;2023-09-19T12:27:00;30.07;;;23.03;;
11037;SDS011;5572;49.540;11.932;2023-09-19T12:29:31;27.07;;;21.77;;
11037;SDS011;5572;49.540;11.932;2023-09-19T12:31:59;30.33;;;23.60;;
11037;SDS011;5572;49.540;11.932;2023-09-19T12:34:29;31.20;;;23.73;;
11037;SDS011;5572;49.540;11.932;2023-09-19T12:37:03;30.90;;;23.20;;
11037;SDS011;5572;49.540;11.932;2023-09-19T12:39:36;26.07;;;21.30;;
11037;SDS011;5572;49.540;11.932;2023-09-19T12:42:05;30.67;;;23.97;;
11037;SDS011;5572;49.540;11.932;2023-09-19T12:44:34;32.03;;;24.10;;
11037;SDS011;5572;49.540;11.932;2023-09-19T12:47:07;32.40;;;25.80;;
11037;SDS011;5572;49.540;11.932;2023-09-19T12:49:35;30.97;;;24.00;;
11037;SDS011;5572;49.540;11.932;2023-09-19T12:52:02;32.80;;;25.13;;
11037;SDS011;5572;49.540;11.932;2023-09-19T12:54:37;31.40;;;24.40;;
11037;SDS011;5572;49.540;11.932;2023-09-19T12:57:06;33.07;;;25.33;;
11037;SDS011;5572;49.540;11.932;2023-09-19T12:59:33;34.00;;;26.07;;
11037;SDS011;5572;49.540;11.932;2023-09-19T13:02:04;34.20;;;25.73;;
11037;SDS011;5572;49.540;11.932;2023-09-19T13:04:39;35.67;;;26.13;;
11037;SDS011;5572;49.540;11.932;2023-09-19T13:07:07;34.53;;;26.13;;
11037;SDS011;5572;49.540;11.932;2023-09-19T13:09:35;35.03;;;26.13;;
11037;SDS011;5572;49.540;11.932;2023-09-19T13:12:04;31.27;;;24.67;;
11037;SDS011;5572;49.540;11.932;2023-09-19T13:14:34;33.07;;;26.60;;
11037;SDS011;5572;49.540;11.932;2023-09-19T13:17:05;33.53;;;26.63;;
11037;SDS011;5572;49.540;11.932;2023-09-19T13:19:41;39.63;;;25.67;;
11037;SDS011;5572;49.540;11.932;2023-09-19T13:25:04;34.03;;;24.53;;
11037;SDS011;5572;49.540;11.932;2023-09-19T13:27:31;32.93;;;25.67;;
11037;SDS011;5572;49.540;11.932;2023-09-19T13:29:59;28.57;;;23.03;;
11037;SDS011;5572;49.540;11.932;2023-09-19T13:32:26;31.80;;;25.53;;
11037;SDS011;5572;49.540;11.932;2023-09-19T13:34:53;30.30;;;22.73;;
11037;SDS011;5572;49.540;11.932;2023-09-19T13:37:20;32.20;;;26.07;;
11037;SDS011;5572;49.540;11.932;2023-09-19T13:39:47;33.53;;;25.33;;
11037;SDS011;5572;49.540;11.932;2023-09-19T13:42:14;33.63;;;25.30;;
11037;SDS011;5572;49.540;11.932;2023-09-19T13:44:41;34.13;;;26.00;;
11037;SDS011;5572;49.540;11.932;2023-09-19T13:47:09;30.53;;;25.03;;
11037;SDS011;5572;49.540;11.932;2023-09-19T13:49:38;30.83;;;25.70;;
11037;SDS011;5572;49.540;11.932;2023-09-19T13:52:05;34.87;;;26.73;;
11037;SDS011;5572;49.540;11.932;2023-09-19T13:54:32;33.47;;;24.80;;
11037;SDS011;5572;49.540;11.932;2023-09-19T13:56:59;34.10;;;25.70;;
11037;SDS011;5572;49.540;11.932;2023-09-19T13:59:26;31.63;;;25.90;;
11037;SDS011;5572;49.540;11.932;2023-09-19T14:01:53;39.03;;;28.33;;
11037;SDS011;5572;49.540;11.932;2023-09-19T14:04:21;37.43;;;27.77;;
11037;SDS011;5572;49.540;11.932;2023-09-19T14:06:48;34.30;;;27.23;;
11037;SDS011;5572;49.540;11.932;2023-09-19T14:09:14;34.37;;;24.87;;
11037;SDS011;5572;49.540;11.932;2023-09-19T14:11:41;36.87;;;28.10;;
11037;SDS011;5572;49.540;11.932;2023-09-19T14:14:11;36.03;;;26.87;;
11037;SDS011;5572;49.540;11.932;2023-09-19T14:16:37;34.87;;;25.60;;
11037;SDS011;5572;49.540;11.932;2023-09-19T14:19:06;39.37;;;27.03;;
11037;SDS011;5572;49.540;11.932;2023-09-19T14:21:35;37.97;;;28.50;;
11037;SDS011;5572;49.540;11.932;2023-09-19T14:24:04;38.90;;;27.97;;
11037;SDS011;5572;49.540;11.932;2023-09-19T14:26:34;33.87;;;25.97;;
11037;SDS011;5572;49.540;11.932;2023-09-19T14:29:00;33.23;;;25.83;;
11037;SDS011;5572;49.540;11.932;2023-09-19T14:31:27;34.73;;;26.60;;
11037;SDS011;5572;49.540;11.932;2023-09-19T14:33:54;36.03;;;26.63;;
11037;SDS011;5572;49.540;11.932;2023-09-19T14:36:21;33.03;;;25.20;;
11037;SDS011;5572;49.540;11.932;2023-09-19T14:38:51;34.87;;;25.30;;
11037;SDS011;5572;49.540;11.932;2023-09-19T14:41:19;37.30;;;26.50;;
11037;SDS011;5572;49.540;11.932;2023-09-19T14:43:46;32.97;;;24.77;;
11037;SDS011;5572;49.540;11.932;2023-09-19T14:46:13;37.47;;;27.10;;
11037;SDS011;5572;49.540;11.932;2023-09-19T14:48:41;36.77;;;25.90;;
11037;SDS011;5572;49.540;11.932;2023-09-19T14:51:08;37.07;;;25.50;;
11037;SDS011;5572;49.540;11.932;2023-09-19T14:53:34;37.60;;;27.77;;
11037;SDS011;5572;49.540;11.932;2023-09-19T14:56:04;34.33;;;26.03;;